createdAt,value
2023-04-13T00:01:36.080Z,9.30
2023-04-13T00:04:02.864Z,9.60
2023-04-13T00:06:29.596Z,9.80
2023-04-13T00:08:56.153Z,10.00
2023-04-13T00:11:22.684Z,10.20
2023-04-13T00:13:49.188Z,9.50
2023-04-13T00:16:17.854Z,9.90
2023-04-13T00:18:44.525Z,9.30
2023-04-13T00:21:11.430Z,10.20
2023-04-13T00:23:37.939Z,9.50
2023-04-13T00:26:04.569Z,9.80
2023-04-13T00:28:31.021Z,11.10
2023-04-13T00:30:57.574Z,10.70
2023-04-13T00:33:23.979Z,10.00
2023-04-13T00:35:50.349Z,9.10
2023-04-13T00:38:17.591Z,9.70
2023-04-13T00:40:44.070Z,9.40
2023-04-13T00:43:10.800Z,9.40
2023-04-13T00:45:38.915Z,9.60
2023-04-13T00:48:09.006Z,10.70
2023-04-13T00:50:36.010Z,10.20
2023-04-13T00:53:02.444Z,9.60
2023-04-13T00:55:28.857Z,10.00
2023-04-13T00:57:55.416Z,10.10
2023-04-13T01:00:23.954Z,10.40
2023-04-13T01:02:52.041Z,11.30
2023-04-13T01:05:22.373Z,11.40
2023-04-13T01:08:11.023Z,10.00
2023-04-13T01:11:13.164Z,10.20
2023-04-13T01:14:00.410Z,10.00
2023-04-13T01:16:30.513Z,10.80
2023-04-13T01:18:57.147Z,9.90
2023-04-13T01:21:25.401Z,11.10
2023-04-13T01:23:59.691Z,11.30
2023-04-13T01:26:30.847Z,10.40
2023-04-13T01:28:57.569Z,10.60
2023-04-13T01:31:24.213Z,10.30
2023-04-13T01:33:50.905Z,10.50
2023-04-13T01:36:17.317Z,9.90
2023-04-13T01:38:43.813Z,10.10
2023-04-13T01:41:10.402Z,10.80
2023-04-13T01:43:37.428Z,11.50
2023-04-13T01:46:10.872Z,11.00
2023-04-13T01:48:49.964Z,10.50
2023-04-13T01:51:16.733Z,11.00
2023-04-13T01:53:48.418Z,11.10
2023-04-13T01:56:15.911Z,10.60
2023-04-13T01:58:42.885Z,10.70
2023-04-13T02:01:13.854Z,10.10
2023-04-13T02:03:42.645Z,11.00
2023-04-13T02:06:10.198Z,11.00
2023-04-13T02:08:42.167Z,11.40
2023-04-13T02:11:09.585Z,10.30
2023-04-13T02:13:40.441Z,10.30
2023-04-13T02:16:10.955Z,10.40
2023-04-13T02:18:43.065Z,10.00
2023-04-13T02:21:15.908Z,9.50
2023-04-13T02:24:56.044Z,9.40
2023-04-13T02:27:23.529Z,10.90
2023-04-13T02:29:50.947Z,11.20
2023-04-13T02:32:27.373Z,10.70
2023-04-13T02:34:53.887Z,9.50
2023-04-13T02:37:23.132Z,9.90
2023-04-13T02:39:49.934Z,10.00
2023-04-13T02:42:16.843Z,9.60
2023-04-13T02:44:46.399Z,10.90
2023-04-13T02:47:12.938Z,10.00
2023-04-13T02:49:39.398Z,9.70
2023-04-13T02:52:05.951Z,10.00
2023-04-13T02:54:32.578Z,10.90
2023-04-13T02:57:00.165Z,9.40
2023-04-13T02:59:27.889Z,9.80
2023-04-13T03:01:58.164Z,9.40
2023-04-13T03:04:24.950Z,9.30
2023-04-13T03:06:53.682Z,9.00
2023-04-13T03:09:20.399Z,10.00
2023-04-13T03:11:49.265Z,10.10
2023-04-13T03:14:20.546Z,11.00
2023-04-13T03:16:47.611Z,9.90
2023-04-13T03:19:16.070Z,9.60
2023-04-13T03:21:45.888Z,10.20
2023-04-13T03:24:15.374Z,10.00
2023-04-13T03:26:41.893Z,9.80
2023-04-13T03:29:08.225Z,11.40
2023-04-13T03:31:34.661Z,12.50
2023-04-13T03:34:06.811Z,11.50
2023-04-13T03:36:36.627Z,11.70
2023-04-13T03:39:06.434Z,12.30
2023-04-13T03:41:33.003Z,12.60
2023-04-13T03:43:59.914Z,12.20
2023-04-13T03:46:26.885Z,11.70
2023-04-13T03:48:56.238Z,12.10
2023-04-13T03:51:22.790Z,12.40
2023-04-13T03:53:49.304Z,12.40
2023-04-13T03:56:15.930Z,13.90
2023-04-13T03:58:45.443Z,13.40
2023-04-13T04:01:13.279Z,13.80
2023-04-13T04:03:39.853Z,13.60
2023-04-13T04:06:06.525Z,12.20
2023-04-13T04:08:36.133Z,10.80
2023-04-13T04:11:03.772Z,11.00
2023-04-13T04:13:30.519Z,11.20
2023-04-13T04:15:57.764Z,11.30
2023-04-13T04:18:26.651Z,11.40
2023-04-13T04:20:53.893Z,11.10
2023-04-13T04:23:20.242Z,12.40
2023-04-13T04:25:49.000Z,11.40
2023-04-13T04:28:15.542Z,9.90
2023-04-13T04:30:45.050Z,11.20
2023-04-13T04:33:14.876Z,11.00
2023-04-13T04:35:49.530Z,11.40
2023-04-13T04:38:17.366Z,11.00
2023-04-13T04:40:47.497Z,10.30
2023-04-13T04:43:14.239Z,11.10
2023-04-13T04:45:42.864Z,11.00
2023-04-13T04:48:10.725Z,9.50
2023-04-13T04:50:37.624Z,9.90
2023-04-13T04:53:04.263Z,12.30
2023-04-13T04:55:30.720Z,16.00
2023-04-13T04:57:57.313Z,16.70
2023-04-13T05:00:25.731Z,18.90
2023-04-13T05:02:52.297Z,14.00
2023-04-13T05:05:18.908Z,15.20
2023-04-13T05:07:45.471Z,11.30
2023-04-13T05:10:11.878Z,11.50
2023-04-13T05:12:38.358Z,10.30
2023-04-13T05:15:05.748Z,11.40
2023-04-13T05:17:32.065Z,11.30
2023-04-13T05:19:58.426Z,11.20
2023-04-13T05:22:24.861Z,11.00
2023-04-13T05:24:51.120Z,10.70
2023-04-13T05:27:17.557Z,10.20
2023-04-13T05:29:46.236Z,10.70
2023-04-13T05:32:13.908Z,11.00
2023-04-13T05:34:40.391Z,11.00
2023-04-13T05:37:07.939Z,11.10
2023-04-13T05:39:34.496Z,11.40
2023-04-13T05:42:01.160Z,12.10
2023-04-13T05:44:27.508Z,10.80
2023-04-13T05:46:54.021Z,11.40
2023-04-13T05:49:20.360Z,10.20
2023-04-13T05:51:47.261Z,11.10
2023-04-13T05:54:16.865Z,10.60
2023-04-13T05:56:43.161Z,12.70
2023-04-13T05:59:10.787Z,10.60
2023-04-13T06:01:37.198Z,10.40
2023-04-13T06:04:05.330Z,10.00
2023-04-13T06:06:32.131Z,11.10
2023-04-13T06:08:58.627Z,10.80
2023-04-13T06:11:25.670Z,10.50
2023-04-13T06:13:52.442Z,15.80
2023-04-13T06:16:21.045Z,19.00
2023-04-13T06:18:47.772Z,25.50
2023-04-13T06:21:15.102Z,33.70
2023-04-13T06:23:41.416Z,24.80
2023-04-13T06:26:08.340Z,24.10
2023-04-13T06:28:34.703Z,16.70
2023-04-13T06:31:01.273Z,12.10
2023-04-13T06:33:27.783Z,11.90
2023-04-13T06:35:54.111Z,9.90
2023-04-13T06:38:20.759Z,9.50
2023-04-13T06:40:47.214Z,10.00
2023-04-13T06:43:26.223Z,10.40
2023-04-13T06:45:59.518Z,10.20
2023-04-13T06:48:26.792Z,9.80
2023-04-13T06:50:56.456Z,10.40
2023-04-13T06:53:23.050Z,10.90
2023-04-13T06:55:49.416Z,10.20
2023-04-13T06:58:16.470Z,10.20
2023-04-13T07:00:43.398Z,9.50
2023-04-13T07:03:09.990Z,9.70
2023-04-13T07:05:36.387Z,9.40
2023-04-13T07:08:02.817Z,9.40
2023-04-13T07:10:29.161Z,9.10
2023-04-13T07:12:55.616Z,10.00
2023-04-13T07:15:21.984Z,9.50
2023-04-13T07:17:48.609Z,8.70
2023-04-13T07:20:15.613Z,9.20
2023-04-13T07:22:42.169Z,8.90
2023-04-13T07:25:08.649Z,8.90
2023-04-13T07:27:35.114Z,8.80
2023-04-13T07:30:01.505Z,8.90
2023-04-13T07:32:31.220Z,8.70
2023-04-13T07:35:00.788Z,8.60
2023-04-13T07:37:27.435Z,8.70
2023-04-13T07:39:54.218Z,8.10
2023-04-13T07:42:20.633Z,8.80
2023-04-13T07:44:47.005Z,8.30
2023-04-13T07:47:13.489Z,8.00
2023-04-13T07:49:40.040Z,7.90
2023-04-13T07:52:06.460Z,7.80
2023-04-13T07:54:34.370Z,7.00
2023-04-13T07:57:02.353Z,7.70
2023-04-13T07:59:29.158Z,7.80
2023-04-13T08:01:55.612Z,7.60
2023-04-13T08:04:22.177Z,6.50
2023-04-13T08:06:48.981Z,6.30
2023-04-13T08:09:15.306Z,6.30
2023-04-13T08:11:41.755Z,6.40
2023-04-13T08:14:09.145Z,6.50
2023-04-13T08:16:35.579Z,7.30
2023-04-13T08:19:02.148Z,7.80
2023-04-13T08:21:29.471Z,7.00
2023-04-13T08:23:56.712Z,7.40
2023-04-13T08:26:23.864Z,5.80
2023-04-13T08:28:52.205Z,4.90
2023-04-13T08:31:18.552Z,4.80
2023-04-13T08:33:44.849Z,5.70
2023-04-13T08:36:11.594Z,5.10
2023-04-13T08:38:37.934Z,4.60
2023-04-13T08:41:04.371Z,4.90
2023-04-13T08:43:35.299Z,4.40
2023-04-13T08:46:06.083Z,5.80
2023-04-13T08:48:42.280Z,5.80
2023-04-13T08:51:17.481Z,5.30
2023-04-13T08:53:43.857Z,5.40
2023-04-13T08:56:10.446Z,5.80
2023-04-13T08:58:38.191Z,6.10
2023-04-13T09:01:05.809Z,6.40
2023-04-13T09:03:37.234Z,5.90
2023-04-13T09:06:06.689Z,5.90
2023-04-13T09:08:35.133Z,5.50
2023-04-13T09:11:01.991Z,6.40
2023-04-13T09:13:28.814Z,6.20
2023-04-13T09:15:55.393Z,6.20
2023-04-13T09:18:22.069Z,6.80
2023-04-13T09:20:58.423Z,6.40
2023-04-13T09:23:24.970Z,7.10
2023-04-13T09:26:06.727Z,6.40
2023-04-13T09:28:33.090Z,6.70
2023-04-13T09:31:03.812Z,6.20
2023-04-13T09:33:35.448Z,6.90
2023-04-13T09:36:08.560Z,6.90
2023-04-13T09:38:35.036Z,6.00
2023-04-13T09:41:01.392Z,5.80
2023-04-13T09:43:37.400Z,6.10
2023-04-13T09:46:04.206Z,5.00
2023-04-13T09:48:31.014Z,5.00
2023-04-13T09:50:58.713Z,4.70
2023-04-13T09:53:25.143Z,5.10
2023-04-13T09:55:58.495Z,4.50
2023-04-13T09:58:25.832Z,3.80
2023-04-13T10:00:52.617Z,3.10
2023-04-13T10:03:21.598Z,3.60
2023-04-13T10:05:58.881Z,3.20
2023-04-13T10:08:37.406Z,3.00
2023-04-13T10:11:10.023Z,3.10
2023-04-13T10:13:49.135Z,3.10
2023-04-13T10:16:29.374Z,3.10
2023-04-13T10:19:05.724Z,3.40
2023-04-13T10:21:34.876Z,2.90
2023-04-13T10:24:12.221Z,3.50
2023-04-13T10:26:39.500Z,3.50
2023-04-13T10:29:07.633Z,3.40
2023-04-13T10:31:46.305Z,3.30
2023-04-13T10:34:22.769Z,3.40
2023-04-13T10:36:51.077Z,3.10
2023-04-13T10:39:23.823Z,3.60
2023-04-13T10:41:59.869Z,2.30
2023-04-13T10:44:26.422Z,3.10
2023-04-13T10:46:53.638Z,2.90
2023-04-13T10:49:29.976Z,3.00
2023-04-13T10:51:56.272Z,2.40
2023-04-13T10:54:26.364Z,2.10
2023-04-13T10:56:56.974Z,2.20
2023-04-13T10:59:23.386Z,2.40
2023-04-13T11:01:49.896Z,2.40
2023-04-13T11:04:18.795Z,2.30
2023-04-13T11:06:45.675Z,2.00
2023-04-13T11:09:14.313Z,2.20
2023-04-13T11:11:42.611Z,1.70
2023-04-13T11:14:08.936Z,1.40
2023-04-13T11:16:45.378Z,1.50
2023-04-13T11:19:11.822Z,1.70
2023-04-13T11:21:38.186Z,1.80
2023-04-13T11:24:04.661Z,1.80
2023-04-13T11:26:34.753Z,1.50
2023-04-13T11:29:02.061Z,1.90
2023-04-13T11:31:36.707Z,1.40
2023-04-13T11:34:05.118Z,1.20
2023-04-13T11:36:31.548Z,1.10
2023-04-13T11:38:59.891Z,1.20
2023-04-13T11:41:28.306Z,1.30
2023-04-13T11:43:54.868Z,1.20
2023-04-13T11:46:24.375Z,1.10
2023-04-13T11:48:51.864Z,1.20
2023-04-13T11:51:21.613Z,1.10
2023-04-13T11:53:48.842Z,1.30
2023-04-13T11:56:15.280Z,1.50
2023-04-13T11:58:42.194Z,1.50
2023-04-13T12:03:55.662Z,1.50
2023-04-13T12:06:26.963Z,1.60
2023-04-13T12:09:09.350Z,1.50
2023-04-13T12:11:41.969Z,1.10
2023-04-13T12:14:40.959Z,1.20
2023-04-13T12:17:34.943Z,1.80
2023-04-13T12:20:00.646Z,1.10
2023-04-13T12:22:51.015Z,1.20
2023-04-13T12:25:24.209Z,1.20
2023-04-13T12:27:52.372Z,1.20
2023-04-13T12:30:22.044Z,1.30
2023-04-13T12:32:50.846Z,1.10
2023-04-13T12:35:18.735Z,0.90
2023-04-13T12:37:46.307Z,1.30
2023-04-13T12:40:14.565Z,1.30
2023-04-13T12:42:47.106Z,1.10
2023-04-13T12:45:14.609Z,1.00
2023-04-13T12:47:41.044Z,1.40
2023-04-13T12:50:08.520Z,1.00
2023-04-13T12:52:36.480Z,1.30
2023-04-13T12:55:03.018Z,1.40
2023-04-13T12:57:29.467Z,1.00
2023-04-13T12:59:56.489Z,1.10
2023-04-13T13:02:24.260Z,1.00
2023-04-13T13:04:51.162Z,0.90
2023-04-13T13:07:18.128Z,1.10
2023-04-13T13:09:44.681Z,0.80
2023-04-13T13:12:11.412Z,0.70
2023-04-13T13:14:38.078Z,1.30
2023-04-13T13:17:04.492Z,0.70
2023-04-13T13:19:30.955Z,0.60
2023-04-13T13:21:58.207Z,0.60
2023-04-13T13:24:24.833Z,0.80
2023-04-13T13:27:19.669Z,0.70
2023-04-13T13:29:38.240Z,0.80
2023-04-13T13:32:04.853Z,0.90
2023-04-13T13:34:31.357Z,1.10
2023-04-13T13:36:58.328Z,1.90
2023-04-13T13:39:24.954Z,1.10
2023-04-13T13:41:51.347Z,0.90
2023-04-13T13:44:17.720Z,0.80
2023-04-13T13:46:44.087Z,0.90
2023-04-13T13:49:11.156Z,0.70
2023-04-13T13:51:37.433Z,1.30
2023-04-13T13:54:03.723Z,1.30
2023-04-13T13:56:30.259Z,1.20
2023-04-13T13:58:56.999Z,1.40
2023-04-13T14:01:23.883Z,1.60
2023-04-13T14:03:50.686Z,1.60
2023-04-13T14:06:17.142Z,1.90
2023-04-13T14:08:43.561Z,2.00
2023-04-13T14:11:10.814Z,3.20
2023-04-13T14:13:37.359Z,8.60
2023-04-13T14:16:04.143Z,15.30
2023-04-13T14:18:30.514Z,2.00
2023-04-13T14:20:57.432Z,1.40
2023-04-13T14:23:23.762Z,0.90
2023-04-13T14:25:50.342Z,1.10
2023-04-13T14:28:17.858Z,0.90
2023-04-13T14:30:44.558Z,0.90
2023-04-13T14:33:13.959Z,1.50
2023-04-13T14:35:40.661Z,1.00
2023-04-13T14:38:07.696Z,0.70
2023-04-13T14:40:34.104Z,0.80
2023-04-13T14:43:01.633Z,0.50
2023-04-13T14:45:28.709Z,0.50
2023-04-13T14:47:55.176Z,0.70
2023-04-13T14:50:21.835Z,0.90
2023-04-13T14:52:49.570Z,0.70
2023-04-13T14:55:16.530Z,1.00
2023-04-13T14:57:42.984Z,1.10
2023-04-13T15:00:20.719Z,1.10
2023-04-13T15:02:48.175Z,0.90
2023-04-13T15:05:15.243Z,0.90
2023-04-13T15:07:42.567Z,1.20
2023-04-13T15:10:08.922Z,0.90
2023-04-13T15:12:35.829Z,0.60
2023-04-13T15:15:02.264Z,2.20
2023-04-13T15:17:29.182Z,1.20
2023-04-13T15:19:55.602Z,1.10
2023-04-13T15:22:21.913Z,1.00
2023-04-13T15:24:48.352Z,1.30
2023-04-13T15:27:14.729Z,1.30
2023-04-13T15:29:41.054Z,1.00
2023-04-13T15:32:07.818Z,1.20
2023-04-13T15:34:34.297Z,2.20
2023-04-13T15:37:00.590Z,1.30
2023-04-13T15:39:27.802Z,1.30
2023-04-13T15:41:54.506Z,2.00
2023-04-13T15:44:21.057Z,1.50
2023-04-13T15:46:47.317Z,3.30
2023-04-13T15:49:13.836Z,16.50
2023-04-13T15:51:40.698Z,9.40
2023-04-13T15:54:07.060Z,3.90
2023-04-13T15:56:33.400Z,3.60
2023-04-13T15:59:00.377Z,3.50
2023-04-13T16:01:26.854Z,1.90
2023-04-13T16:03:54.076Z,3.10
2023-04-13T16:06:20.486Z,1.60
2023-04-13T16:08:48.388Z,1.80
2023-04-13T16:11:14.689Z,1.40
2023-04-13T16:13:49.346Z,1.60
2023-04-13T16:16:17.548Z,3.30
2023-04-13T16:18:43.987Z,7.10
2023-04-13T16:21:11.672Z,1.60
2023-04-13T16:23:37.976Z,2.10
2023-04-13T16:26:04.398Z,2.10
2023-04-13T16:28:30.944Z,2.20
2023-04-13T16:30:57.527Z,1.60
2023-04-13T16:33:23.897Z,2.30
2023-04-13T16:35:50.650Z,2.30
2023-04-13T16:38:16.989Z,2.80
2023-04-13T16:40:43.433Z,2.80
2023-04-13T16:43:09.904Z,2.80
2023-04-13T16:45:36.970Z,3.20
2023-04-13T16:48:03.840Z,2.70
2023-04-13T16:50:31.962Z,2.20
2023-04-13T16:52:59.017Z,2.50
2023-04-13T16:55:27.502Z,2.40
2023-04-13T16:57:53.905Z,2.70
2023-04-13T17:00:20.441Z,3.80
2023-04-13T17:02:47.095Z,4.80
2023-04-13T17:05:13.619Z,9.70
2023-04-13T17:07:41.082Z,21.70
2023-04-13T17:10:08.148Z,15.90
2023-04-13T17:12:34.791Z,8.30
2023-04-13T17:15:01.171Z,9.60
2023-04-13T17:17:27.855Z,8.60
2023-04-13T17:19:54.316Z,10.70
2023-04-13T17:22:21.454Z,8.40
2023-04-13T17:24:47.975Z,6.30
2023-04-13T17:27:14.792Z,5.10
2023-04-13T17:29:41.457Z,4.10
2023-04-13T17:32:07.886Z,3.80
2023-04-13T17:34:34.392Z,5.30
2023-04-13T17:37:01.499Z,4.30
2023-04-13T17:39:28.441Z,3.00
2023-04-13T17:41:55.798Z,3.70
2023-04-13T17:44:22.291Z,2.10
2023-04-13T17:46:49.602Z,2.10
2023-04-13T17:49:15.967Z,2.60
2023-04-13T17:51:48.637Z,2.80
2023-04-13T17:54:15.258Z,3.40
2023-04-13T17:56:41.608Z,2.20
2023-04-13T17:59:10.881Z,2.20
2023-04-13T18:01:37.212Z,2.40
2023-04-13T18:04:03.866Z,2.40
2023-04-13T18:06:30.952Z,2.10
2023-04-13T18:08:57.275Z,2.50
2023-04-13T18:11:23.995Z,2.50
2023-04-13T18:13:50.372Z,3.00
2023-04-13T18:16:16.804Z,3.10
2023-04-13T18:18:43.660Z,3.10
2023-04-13T18:21:09.992Z,2.20
2023-04-13T18:23:36.266Z,2.10
2023-04-13T18:26:02.617Z,2.10
2023-04-13T18:28:29.326Z,2.20
2023-04-13T18:30:59.583Z,2.10
2023-04-13T18:33:26.995Z,2.10
2023-04-13T18:35:53.403Z,2.00
2023-04-13T18:38:19.850Z,2.00
2023-04-13T18:40:46.272Z,3.00
2023-04-13T18:43:12.539Z,3.30
2023-04-13T18:45:38.875Z,3.90
2023-04-13T18:48:06.586Z,4.80
2023-04-13T18:50:33.321Z,4.20
2023-04-13T18:52:59.603Z,4.50
2023-04-13T18:55:27.834Z,4.20
2023-04-13T18:57:54.773Z,5.40
2023-04-13T19:00:21.609Z,6.00
2023-04-13T19:02:48.970Z,5.70
2023-04-13T19:05:16.137Z,5.50
2023-04-13T19:07:44.144Z,6.30
2023-04-13T19:10:10.724Z,6.60
2023-04-13T19:12:37.283Z,5.40
2023-04-13T19:15:03.803Z,5.00
2023-04-13T19:17:30.226Z,5.00
2023-04-13T19:19:56.643Z,4.80
2023-04-13T19:22:22.943Z,5.20
2023-04-13T19:24:49.299Z,4.50
2023-04-13T19:27:15.671Z,3.90
2023-04-13T19:29:41.995Z,4.20
2023-04-13T19:32:09.763Z,4.20
2023-04-13T19:34:36.827Z,5.90
2023-04-13T19:37:03.228Z,4.50
2023-04-13T19:39:29.872Z,3.60
2023-04-13T19:41:56.237Z,3.70
2023-04-13T19:44:22.569Z,3.50
2023-04-13T19:46:49.326Z,2.40
2023-04-13T19:49:15.886Z,2.40
2023-04-13T19:51:42.249Z,1.40
2023-04-13T19:54:08.500Z,1.60
2023-04-13T19:56:35.177Z,2.00
2023-04-13T19:59:03.515Z,2.00
2023-04-13T20:01:32.289Z,2.20
2023-04-13T20:03:59.189Z,1.50
2023-04-13T20:06:26.935Z,1.70
2023-04-13T20:08:53.195Z,2.20
2023-04-13T20:11:20.056Z,3.30
2023-04-13T20:13:46.626Z,3.30
2023-04-13T20:16:13.112Z,2.10
2023-04-13T20:18:39.527Z,3.20
2023-04-13T20:21:07.480Z,2.50
2023-04-13T20:23:35.014Z,2.90
2023-04-13T20:26:01.582Z,3.10
2023-04-13T20:28:27.974Z,3.40
2023-04-13T20:30:54.219Z,3.70
2023-04-13T20:33:20.623Z,4.10
2023-04-13T20:35:46.994Z,3.60
2023-04-13T20:38:14.145Z,3.30
2023-04-13T20:40:41.071Z,4.00
2023-04-13T20:43:09.265Z,4.50
2023-04-13T20:45:35.740Z,4.50
2023-04-13T20:48:48.420Z,5.10
2023-04-13T20:50:57.741Z,4.70
2023-04-13T20:53:24.301Z,4.70
2023-04-13T20:55:51.492Z,5.80
2023-04-13T20:58:17.908Z,5.70
2023-04-13T21:00:44.392Z,4.90
2023-04-13T21:03:10.873Z,5.30
2023-04-13T21:05:37.455Z,5.00
2023-04-13T21:08:03.866Z,5.10
2023-04-13T21:10:30.537Z,4.80
2023-04-13T21:12:56.979Z,5.00
2023-04-13T21:15:23.309Z,4.90
2023-04-13T21:17:49.754Z,4.60
2023-04-13T21:20:16.140Z,4.90
2023-04-13T21:22:42.496Z,5.40
2023-04-13T21:25:08.941Z,6.20
2023-04-13T21:27:35.373Z,7.20
2023-04-13T21:30:05.206Z,7.70
2023-04-13T21:32:31.746Z,8.50
2023-04-13T21:34:59.684Z,9.90
2023-04-13T21:37:27.773Z,12.00
2023-04-13T21:39:54.676Z,11.00
2023-04-13T21:42:22.714Z,9.80
2023-04-13T21:44:49.353Z,8.70
2023-04-13T21:47:15.706Z,6.70
2023-04-13T21:49:42.510Z,5.80
2023-04-13T21:52:09.203Z,6.10
2023-04-13T21:54:35.569Z,6.30
2023-04-13T21:57:01.942Z,6.00
2023-04-13T21:59:28.341Z,6.10
2023-04-13T22:01:57.454Z,7.40
2023-04-13T22:04:24.104Z,6.50
2023-04-13T22:07:11.520Z,7.20
2023-04-13T22:09:38.335Z,6.50
2023-04-13T22:12:04.712Z,6.20
2023-04-13T22:14:31.061Z,6.70
2023-04-13T22:16:58.775Z,7.30
2023-04-13T22:19:25.342Z,7.00
2023-04-13T22:21:51.729Z,6.40
2023-04-13T22:24:18.418Z,5.90
2023-04-13T22:26:45.624Z,6.50
2023-04-13T22:29:12.042Z,6.00
2023-04-13T22:31:38.588Z,6.00
2023-04-13T22:34:05.015Z,6.00
2023-04-13T22:36:31.496Z,5.50
2023-04-13T22:38:58.152Z,5.50
2023-04-13T22:41:24.733Z,5.80
2023-04-13T22:43:50.986Z,5.20
2023-04-13T22:46:17.894Z,5.70
2023-04-13T22:48:44.404Z,6.00
2023-04-13T22:51:10.978Z,5.60
2023-04-13T22:53:37.482Z,5.30
2023-04-13T22:56:04.044Z,4.70
2023-04-13T22:58:30.633Z,5.40
2023-04-13T23:00:57.035Z,5.50
2023-04-13T23:03:23.797Z,4.90
2023-04-13T23:05:50.454Z,6.00
2023-04-13T23:08:16.842Z,4.50
2023-04-13T23:10:43.294Z,4.20
2023-04-13T23:13:17.873Z,5.10
2023-04-13T23:15:44.168Z,5.80
2023-04-13T23:18:10.577Z,5.10
2023-04-13T23:20:45.998Z,5.20
2023-04-13T23:23:14.875Z,5.20
2023-04-13T23:25:48.351Z,4.80
2023-04-13T23:28:14.729Z,5.40
2023-04-13T23:30:43.416Z,6.40
2023-04-13T23:33:10.422Z,5.80
2023-04-13T23:35:45.666Z,5.30
2023-04-13T23:38:11.981Z,5.50
2023-04-13T23:40:38.451Z,5.30
2023-04-13T23:43:07.119Z,5.70
2023-04-13T23:45:33.568Z,5.70
2023-04-13T23:47:59.952Z,6.00
2023-04-13T23:50:33.834Z,5.70
2023-04-13T23:53:00.370Z,5.80
2023-04-13T23:55:27.135Z,5.00
2023-04-13T23:57:53.662Z,6.30
